Elvins, Missouri
Current Conditions -  °F | °C
As of 7:15 PM on Friday 24 Oct 2014 (Local Time) from KFAM Reporting Station
Clear Clear  
Wind Chill: 64°   Ceiling: Unl
Heat Index: 64°   Visibility: 10mi
Dew Point: 50°   Wind: 6mph
Humidity: 59%   Direction: 170°S
Pressure: 30.06"   Gusts: NA
Location:  37.8386°N, 90.5648°W
Report Text: KFAM 250015Z AUTO 17005KT 10SM CLR 18/10 A3006 RMK AO1
Loading
Personal Weather Stations






























Interactive Weather Map
Tropical Storm Tracking
New forecast layout! Learn more

10-Day Weather Forecast

Advertisements
Track Severe Weather on mobile